首页
METAR-TAF:

METAR-TAF

机场 :

巴馬科國際機場

巴馬科, 马里共和国

纬度: 12-32N, 经度: 007-57W, 海拔: 380米

当前天气观测

该预报发布于29分钟前的07:00 UTC
风速3节,风向多变
温度 27°C
湿度 37%
气压 1014 hPa
能见度10公里或以上
1500米以下无云,无积雨云

METAR: GABS 050700Z VRB03KT CAVOK 27/11 Q1014 NOSIG

时间: 07:29 (07:29 UTC)

预报

该预报发布于1小时和59分钟前的05:30 UTC
预报有效从05日的 06点(UTC)到 06日的 12点(UTC)
风速8节,风向
能见度10公里或以上
1500米以下无云,无积雨云

TAF: GABS 050530Z 0506/0612 18008KT CAVOK

超过4000个机场的气象观测和天气预报(METAR&TAF报告)。

可查询的气象台以黄色和红色小点在地图上表示。

将鼠标移到小点上方,可查看气象台名称。

然后点击查看天气观测和预报。

如需切换地图:点击带黑十字的绿色按钮放大地图;点击带横线的绿色按钮缩小地图;或者点击绿色箭头查看邻近地区的地图。


METAR-TAF: